sensor_id;sensor_type;location;lat;lon;timestamp;P1;durP1;ratioP1;P2;durP2;ratioP2
34142;SDS011;20419;10.658;106.724;2023-04-25T00:01:20;4.25;;;3.30;;
34142;SDS011;20419;10.658;106.724;2023-04-25T00:03:47;4.50;;;3.15;;
34142;SDS011;20419;10.658;106.724;2023-04-25T00:06:14;4.78;;;3.40;;
34142;SDS011;20419;10.658;106.724;2023-04-25T00:08:41;5.35;;;3.17;;
34142;SDS011;20419;10.658;106.724;2023-04-25T00:11:07;4.50;;;2.60;;
34142;SDS011;20419;10.658;106.724;2023-04-25T00:13:34;4.10;;;3.10;;
34142;SDS011;20419;10.658;106.724;2023-04-25T00:16:01;5.75;;;3.50;;
34142;SDS011;20419;10.658;106.724;2023-04-25T00:18:28;4.60;;;3.25;;
34142;SDS011;20419;10.658;106.724;2023-04-25T00:20:55;5.43;;;3.47;;
34142;SDS011;20419;10.658;106.724;2023-04-25T00:23:22;5.20;;;3.42;;
34142;SDS011;20419;10.658;106.724;2023-04-25T00:25:49;5.72;;;3.53;;
34142;SDS011;20419;10.658;106.724;2023-04-25T00:28:16;4.97;;;3.30;;
34142;SDS011;20419;10.658;106.724;2023-04-25T00:30:43;5.22;;;3.40;;
34142;SDS011;20419;10.658;106.724;2023-04-25T00:33:10;4.60;;;3.30;;
34142;SDS011;20419;10.658;106.724;2023-04-25T00:35:37;4.90;;;3.92;;
34142;SDS011;20419;10.658;106.724;2023-04-25T00:38:04;5.47;;;3.58;;
34142;SDS011;20419;10.658;106.724;2023-04-25T00:40:31;4.65;;;3.15;;
34142;SDS011;20419;10.658;106.724;2023-04-25T00:42:58;4.32;;;3.25;;
34142;SDS011;20419;10.658;106.724;2023-04-25T00:45:28;5.13;;;3.65;;
34142;SDS011;20419;10.658;106.724;2023-04-25T00:47:55;4.65;;;3.42;;
34142;SDS011;20419;10.658;106.724;2023-04-25T00:50:23;5.93;;;3.83;;
34142;SDS011;20419;10.658;106.724;2023-04-25T00:52:49;6.03;;;3.65;;
34142;SDS011;20419;10.658;106.724;2023-04-25T00:55:16;5.50;;;3.75;;
34142;SDS011;20419;10.658;106.724;2023-04-25T00:57:43;6.03;;;4.05;;
34142;SDS011;20419;10.658;106.724;2023-04-25T01:00:10;5.35;;;3.97;;
34142;SDS011;20419;10.658;106.724;2023-04-25T01:02:38;4.85;;;3.67;;
34142;SDS011;20419;10.658;106.724;2023-04-25T01:05:06;4.63;;;3.60;;
34142;SDS011;20419;10.658;106.724;2023-04-25T01:07:34;5.13;;;3.60;;
34142;SDS011;20419;10.658;106.724;2023-04-25T01:10:00;5.40;;;3.75;;
34142;SDS011;20419;10.658;106.724;2023-04-25T01:12:28;4.30;;;3.70;;
34142;SDS011;20419;10.658;106.724;2023-04-25T01:14:55;5.18;;;3.70;;
34142;SDS011;20419;10.658;106.724;2023-04-25T01:17:21;5.53;;;4.05;;
34142;SDS011;20419;10.658;106.724;2023-04-25T01:19:49;5.07;;;3.85;;
34142;SDS011;20419;10.658;106.724;2023-04-25T01:22:16;4.38;;;3.40;;
34142;SDS011;20419;10.658;106.724;2023-04-25T01:24:43;6.05;;;4.15;;
34142;SDS011;20419;10.658;106.724;2023-04-25T01:27:10;4.65;;;3.60;;
34142;SDS011;20419;10.658;106.724;2023-04-25T01:29:37;5.03;;;4.20;;
34142;SDS011;20419;10.658;106.724;2023-04-25T01:32:04;5.60;;;3.92;;
34142;SDS011;20419;10.658;106.724;2023-04-25T01:34:31;6.25;;;4.47;;
34142;SDS011;20419;10.658;106.724;2023-04-25T01:36:59;5.20;;;3.95;;
34142;SDS011;20419;10.658;106.724;2023-04-25T01:41:53;5.50;;;4.10;;
34142;SDS011;20419;10.658;106.724;2023-04-25T01:44:20;4.63;;;3.67;;
34142;SDS011;20419;10.658;106.724;2023-04-25T01:46:47;5.22;;;4.13;;
34142;SDS011;20419;10.658;106.724;2023-04-25T01:49:13;6.53;;;3.97;;
34142;SDS011;20419;10.658;106.724;2023-04-25T01:51:40;5.43;;;4.10;;
34142;SDS011;20419;10.658;106.724;2023-04-25T01:54:07;5.47;;;4.18;;
34142;SDS011;20419;10.658;106.724;2023-04-25T01:56:36;5.57;;;3.92;;
34142;SDS011;20419;10.658;106.724;2023-04-25T01:59:03;4.40;;;3.75;;
34142;SDS011;20419;10.658;106.724;2023-04-25T02:01:30;5.05;;;3.88;;
34142;SDS011;20419;10.658;106.724;2023-04-25T02:03:57;5.63;;;4.35;;
34142;SDS011;20419;10.658;106.724;2023-04-25T02:06:24;5.00;;;4.00;;
34142;SDS011;20419;10.658;106.724;2023-04-25T02:08:50;5.90;;;4.38;;
34142;SDS011;20419;10.658;106.724;2023-04-25T02:11:17;5.38;;;4.18;;
34142;SDS011;20419;10.658;106.724;2023-04-25T02:13:44;5.90;;;4.38;;
34142;SDS011;20419;10.658;106.724;2023-04-25T02:16:11;6.30;;;4.13;;
34142;SDS011;20419;10.658;106.724;2023-04-25T02:18:38;5.78;;;4.25;;
34142;SDS011;20419;10.658;106.724;2023-04-25T02:21:05;5.20;;;4.40;;
34142;SDS011;20419;10.658;106.724;2023-04-25T02:23:32;5.40;;;4.20;;
34142;SDS011;20419;10.658;106.724;2023-04-25T02:25:58;5.82;;;4.55;;
34142;SDS011;20419;10.658;106.724;2023-04-25T02:28:25;5.63;;;4.20;;
34142;SDS011;20419;10.658;106.724;2023-04-25T02:30:52;5.03;;;4.03;;
34142;SDS011;20419;10.658;106.724;2023-04-25T02:33:19;5.15;;;4.30;;
34142;SDS011;20419;10.658;106.724;2023-04-25T02:35:46;5.32;;;4.45;;
34142;SDS011;20419;10.658;106.724;2023-04-25T02:38:13;4.85;;;4.22;;
34142;SDS011;20419;10.658;106.724;2023-04-25T02:40:40;4.80;;;3.95;;
34142;SDS011;20419;10.658;106.724;2023-04-25T02:43:06;4.95;;;4.07;;
34142;SDS011;20419;10.658;106.724;2023-04-25T02:45:33;5.03;;;4.20;;
34142;SDS011;20419;10.658;106.724;2023-04-25T02:48:01;5.22;;;4.05;;
34142;SDS011;20419;10.658;106.724;2023-04-25T02:50:27;5.38;;;4.45;;
34142;SDS011;20419;10.658;106.724;2023-04-25T02:52:54;5.53;;;4.22;;
34142;SDS011;20419;10.658;106.724;2023-04-25T02:55:21;4.63;;;3.65;;
34142;SDS011;20419;10.658;106.724;2023-04-25T02:57:48;4.78;;;4.22;;
34142;SDS011;20419;10.658;106.724;2023-04-25T03:00:14;5.68;;;4.43;;
34142;SDS011;20419;10.658;106.724;2023-04-25T03:02:41;4.45;;;3.92;;
34142;SDS011;20419;10.658;106.724;2023-04-25T03:05:08;4.50;;;3.80;;
34142;SDS011;20419;10.658;106.724;2023-04-25T03:07:35;5.25;;;4.32;;
34142;SDS011;20419;10.658;106.724;2023-04-25T03:10:01;5.38;;;4.55;;
34142;SDS011;20419;10.658;106.724;2023-04-25T03:12:28;5.18;;;4.50;;
34142;SDS011;20419;10.658;106.724;2023-04-25T03:14:55;5.07;;;4.00;;
34142;SDS011;20419;10.658;106.724;2023-04-25T03:17:21;5.35;;;4.60;;
34142;SDS011;20419;10.658;106.724;2023-04-25T03:19:48;5.47;;;4.72;;
34142;SDS011;20419;10.658;106.724;2023-04-25T03:22:15;6.20;;;4.55;;
34142;SDS011;20419;10.658;106.724;2023-04-25T03:24:41;5.13;;;4.35;;
34142;SDS011;20419;10.658;106.724;2023-04-25T03:27:08;5.50;;;4.32;;
34142;SDS011;20419;10.658;106.724;2023-04-25T03:29:35;6.15;;;4.18;;
34142;SDS011;20419;10.658;106.724;2023-04-25T03:32:02;5.20;;;4.22;;
34142;SDS011;20419;10.658;106.724;2023-04-25T03:34:28;5.72;;;4.57;;
34142;SDS011;20419;10.658;106.724;2023-04-25T03:36:55;5.30;;;4.75;;
34142;SDS011;20419;10.658;106.724;2023-04-25T03:39:22;5.53;;;4.63;;
34142;SDS011;20419;10.658;106.724;2023-04-25T03:41:49;5.25;;;4.75;;
34142;SDS011;20419;10.658;106.724;2023-04-25T03:44:15;5.65;;;5.05;;
34142;SDS011;20419;10.658;106.724;2023-04-25T03:46:42;5.57;;;4.70;;
34142;SDS011;20419;10.658;106.724;2023-04-25T03:49:09;5.30;;;4.35;;
34142;SDS011;20419;10.658;106.724;2023-04-25T03:51:36;5.35;;;4.57;;
34142;SDS011;20419;10.658;106.724;2023-04-25T03:54:02;5.13;;;4.40;;
34142;SDS011;20419;10.658;106.724;2023-04-25T03:56:29;4.93;;;4.35;;
34142;SDS011;20419;10.658;106.724;2023-04-25T03:58:56;6.65;;;5.35;;
34142;SDS011;20419;10.658;106.724;2023-04-25T04:01:23;6.35;;;4.93;;
34142;SDS011;20419;10.658;106.724;2023-04-25T04:03:50;6.20;;;4.88;;
34142;SDS011;20419;10.658;106.724;2023-04-25T04:06:17;6.32;;;5.20;;
34142;SDS011;20419;10.658;106.724;2023-04-25T04:08:46;6.18;;;5.25;;
34142;SDS011;20419;10.658;106.724;2023-04-25T04:11:12;6.45;;;5.78;;
34142;SDS011;20419;10.658;106.724;2023-04-25T04:13:39;5.95;;;5.35;;
34142;SDS011;20419;10.658;106.724;2023-04-25T04:16:06;5.22;;;4.63;;
34142;SDS011;20419;10.658;106.724;2023-04-25T04:18:33;5.88;;;5.18;;
34142;SDS011;20419;10.658;106.724;2023-04-25T04:20:59;5.78;;;5.18;;
34142;SDS011;20419;10.658;106.724;2023-04-25T04:23:26;6.15;;;5.40;;
34142;SDS011;20419;10.658;106.724;2023-04-25T04:25:54;6.20;;;5.57;;
34142;SDS011;20419;10.658;106.724;2023-04-25T04:28:21;5.93;;;5.32;;
34142;SDS011;20419;10.658;106.724;2023-04-25T04:30:48;6.53;;;5.60;;
34142;SDS011;20419;10.658;106.724;2023-04-25T04:33:16;6.18;;;5.43;;
34142;SDS011;20419;10.658;106.724;2023-04-25T04:35:45;6.75;;;5.95;;
34142;SDS011;20419;10.658;106.724;2023-04-25T04:38:12;6.28;;;5.63;;
34142;SDS011;20419;10.658;106.724;2023-04-25T04:40:41;8.73;;;5.82;;
34142;SDS011;20419;10.658;106.724;2023-04-25T04:43:08;6.32;;;5.72;;
34142;SDS011;20419;10.658;106.724;2023-04-25T04:45:36;6.40;;;5.78;;
34142;SDS011;20419;10.658;106.724;2023-04-25T04:48:05;7.60;;;6.05;;
34142;SDS011;20419;10.658;106.724;2023-04-25T04:50:32;7.57;;;6.72;;
34142;SDS011;20419;10.658;106.724;2023-04-25T04:53:00;7.00;;;6.25;;
34142;SDS011;20419;10.658;106.724;2023-04-25T04:55:26;7.25;;;6.25;;
34142;SDS011;20419;10.658;106.724;2023-04-25T04:57:53;6.95;;;5.75;;
34142;SDS011;20419;10.658;106.724;2023-04-25T05:00:20;7.65;;;6.88;;
34142;SDS011;20419;10.658;106.724;2023-04-25T05:02:47;7.32;;;6.55;;
34142;SDS011;20419;10.658;106.724;2023-04-25T05:05:14;7.05;;;6.35;;
34142;SDS011;20419;10.658;106.724;2023-04-25T05:07:40;7.38;;;6.57;;
34142;SDS011;20419;10.658;106.724;2023-04-25T05:10:07;7.05;;;6.15;;
34142;SDS011;20419;10.658;106.724;2023-04-25T05:12:34;6.63;;;6.03;;
34142;SDS011;20419;10.658;106.724;2023-04-25T05:15:01;7.43;;;6.72;;
34142;SDS011;20419;10.658;106.724;2023-04-25T05:17:27;7.55;;;6.75;;
34142;SDS011;20419;10.658;106.724;2023-04-25T05:19:54;7.28;;;6.57;;
34142;SDS011;20419;10.658;106.724;2023-04-25T05:22:22;7.80;;;7.03;;
34142;SDS011;20419;10.658;106.724;2023-04-25T05:24:48;7.20;;;6.47;;
34142;SDS011;20419;10.658;106.724;2023-04-25T05:27:17;7.73;;;7.00;;
34142;SDS011;20419;10.658;106.724;2023-04-25T05:29:44;7.40;;;6.70;;
34142;SDS011;20419;10.658;106.724;2023-04-25T05:32:11;7.40;;;6.70;;
34142;SDS011;20419;10.658;106.724;2023-04-25T05:34:37;7.22;;;6.53;;
34142;SDS011;20419;10.658;106.724;2023-04-25T05:37:04;7.88;;;7.07;;
34142;SDS011;20419;10.658;106.724;2023-04-25T05:39:31;7.88;;;7.10;;
34142;SDS011;20419;10.658;106.724;2023-04-25T05:41:58;7.75;;;7.05;;
34142;SDS011;20419;10.658;106.724;2023-04-25T05:44:24;8.05;;;7.25;;
34142;SDS011;20419;10.658;106.724;2023-04-25T05:46:51;8.18;;;7.38;;
34142;SDS011;20419;10.658;106.724;2023-04-25T05:49:18;8.63;;;7.82;;
34142;SDS011;20419;10.658;106.724;2023-04-25T05:51:45;7.93;;;7.13;;
34142;SDS011;20419;10.658;106.724;2023-04-25T05:54:11;8.27;;;7.38;;
34142;SDS011;20419;10.658;106.724;2023-04-25T05:56:38;8.55;;;7.68;;
34142;SDS011;20419;10.658;106.724;2023-04-25T05:59:05;8.07;;;7.28;;
34142;SDS011;20419;10.658;106.724;2023-04-25T06:01:31;8.35;;;7.55;;
34142;SDS011;20419;10.658;106.724;2023-04-25T06:03:58;8.50;;;7.70;;
34142;SDS011;20419;10.658;106.724;2023-04-25T06:06:25;8.98;;;8.18;;
34142;SDS011;20419;10.658;106.724;2023-04-25T06:08:52;8.57;;;7.68;;
34142;SDS011;20419;10.658;106.724;2023-04-25T06:11:20;7.93;;;7.13;;
34142;SDS011;20419;10.658;106.724;2023-04-25T06:13:47;9.45;;;8.50;;
34142;SDS011;20419;10.658;106.724;2023-04-25T06:16:14;8.30;;;7.57;;
34142;SDS011;20419;10.658;106.724;2023-04-25T06:18:40;8.70;;;7.80;;
34142;SDS011;20419;10.658;106.724;2023-04-25T06:21:07;8.50;;;7.70;;
34142;SDS011;20419;10.658;106.724;2023-04-25T06:23:34;8.82;;;7.93;;
34142;SDS011;20419;10.658;106.724;2023-04-25T06:26:00;9.10;;;8.20;;
34142;SDS011;20419;10.658;106.724;2023-04-25T06:28:27;8.48;;;7.68;;
34142;SDS011;20419;10.658;106.724;2023-04-25T06:30:53;9.05;;;8.15;;
34142;SDS011;20419;10.658;106.724;2023-04-25T06:33:20;9.25;;;8.45;;
34142;SDS011;20419;10.658;106.724;2023-04-25T06:35:47;9.20;;;8.30;;
34142;SDS011;20419;10.658;106.724;2023-04-25T06:38:14;8.85;;;8.02;;
34142;SDS011;20419;10.658;106.724;2023-04-25T06:40:41;9.75;;;8.75;;
34142;SDS011;20419;10.658;106.724;2023-04-25T06:43:08;9.80;;;8.90;;
34142;SDS011;20419;10.658;106.724;2023-04-25T06:45:35;8.23;;;7.43;;
34142;SDS011;20419;10.658;106.724;2023-04-25T06:48:01;9.20;;;8.30;;
34142;SDS011;20419;10.658;106.724;2023-04-25T06:50:28;9.20;;;8.30;;
34142;SDS011;20419;10.658;106.724;2023-04-25T06:52:55;9.65;;;8.75;;
34142;SDS011;20419;10.658;106.724;2023-04-25T06:55:21;9.05;;;8.15;;
34142;SDS011;20419;10.658;106.724;2023-04-25T06:57:48;9.65;;;8.75;;
34142;SDS011;20419;10.658;106.724;2023-04-25T07:00:15;9.43;;;8.52;;
34142;SDS011;20419;10.658;106.724;2023-04-25T07:02:42;10.00;;;9.10;;
34142;SDS011;20419;10.658;106.724;2023-04-25T07:05:08;8.90;;;8.10;;
34142;SDS011;20419;10.658;106.724;2023-04-25T07:07:35;8.73;;;7.90;;
34142;SDS011;20419;10.658;106.724;2023-04-25T07:10:02;9.45;;;8.55;;
34142;SDS011;20419;10.658;106.724;2023-04-25T07:12:29;9.63;;;8.68;;
34142;SDS011;20419;10.658;106.724;2023-04-25T07:14:55;9.30;;;8.40;;
34142;SDS011;20419;10.658;106.724;2023-04-25T07:17:22;8.50;;;7.70;;
34142;SDS011;20419;10.658;106.724;2023-04-25T07:19:49;9.02;;;8.15;;
34142;SDS011;20419;10.658;106.724;2023-04-25T07:22:15;9.30;;;8.23;;
34142;SDS011;20419;10.658;106.724;2023-04-25T07:24:42;9.45;;;8.40;;
34142;SDS011;20419;10.658;106.724;2023-04-25T07:27:12;8.93;;;8.13;;
34142;SDS011;20419;10.658;106.724;2023-04-25T07:29:39;10.05;;;9.05;;
34142;SDS011;20419;10.658;106.724;2023-04-25T07:32:06;9.57;;;8.68;;
34142;SDS011;20419;10.658;106.724;2023-04-25T07:34:33;8.98;;;8.07;;
34142;SDS011;20419;10.658;106.724;2023-04-25T07:37:02;9.63;;;8.63;;
34142;SDS011;20419;10.658;106.724;2023-04-25T07:39:29;9.27;;;8.38;;
34142;SDS011;20419;10.658;106.724;2023-04-25T07:41:56;9.32;;;8.43;;
34142;SDS011;20419;10.658;106.724;2023-04-25T07:44:24;9.02;;;8.13;;
34142;SDS011;20419;10.658;106.724;2023-04-25T07:46:51;8.88;;;8.07;;
34142;SDS011;20419;10.658;106.724;2023-04-25T07:49:17;9.63;;;8.70;;
34142;SDS011;20419;10.658;106.724;2023-04-25T07:51:44;9.82;;;8.82;;
34142;SDS011;20419;10.658;106.724;2023-04-25T07:54:13;9.60;;;8.35;;
34142;SDS011;20419;10.658;106.724;2023-04-25T07:56:40;9.82;;;8.80;;
34142;SDS011;20419;10.658;106.724;2023-04-25T07:59:10;10.20;;;9.18;;
34142;SDS011;20419;10.658;106.724;2023-04-25T08:02:03;9.45;;;8.55;;
34142;SDS011;20419;10.658;106.724;2023-04-25T08:04:30;9.38;;;8.48;;
34142;SDS011;20419;10.658;106.724;2023-04-25T08:06:56;10.48;;;9.48;;
34142;SDS011;20419;10.658;106.724;2023-04-25T08:09:23;10.70;;;9.60;;
34142;SDS011;20419;10.658;106.724;2023-04-25T08:11:50;10.52;;;9.52;;
34142;SDS011;20419;10.658;106.724;2023-04-25T08:14:17;10.60;;;9.60;;
34142;SDS011;20419;10.658;106.724;2023-04-25T08:16:43;9.90;;;8.93;;
34142;SDS011;20419;10.658;106.724;2023-04-25T08:19:10;9.60;;;8.68;;
34142;SDS011;20419;10.658;106.724;2023-04-25T08:21:37;10.32;;;9.32;;
34142;SDS011;20419;10.658;106.724;2023-04-25T08:24:04;9.75;;;8.75;;
34142;SDS011;20419;10.658;106.724;2023-04-25T08:26:30;9.23;;;8.32;;
34142;SDS011;20419;10.658;106.724;2023-04-25T08:28:58;10.00;;;8.85;;
34142;SDS011;20419;10.658;106.724;2023-04-25T08:31:24;9.50;;;8.60;;
34142;SDS011;20419;10.658;106.724;2023-04-25T08:33:51;10.45;;;9.35;;
34142;SDS011;20419;10.658;106.724;2023-04-25T08:36:18;10.40;;;9.40;;
34142;SDS011;20419;10.658;106.724;2023-04-25T08:38:45;10.15;;;9.10;;
34142;SDS011;20419;10.658;106.724;2023-04-25T08:41:11;10.20;;;9.20;;
34142;SDS011;20419;10.658;106.724;2023-04-25T08:46:08;10.60;;;9.60;;
34142;SDS011;20419;10.658;106.724;2023-04-25T08:48:35;9.15;;;8.23;;
34142;SDS011;20419;10.658;106.724;2023-04-25T08:51:02;9.40;;;8.50;;
34142;SDS011;20419;10.658;106.724;2023-04-25T08:53:32;9.70;;;8.70;;
34142;SDS011;20419;10.658;106.724;2023-04-25T08:56:00;9.30;;;8.40;;
34142;SDS011;20419;10.658;106.724;2023-04-25T08:58:31;9.77;;;8.80;;
34142;SDS011;20419;10.658;106.724;2023-04-25T09:00:58;10.50;;;9.40;;
34142;SDS011;20419;10.658;106.724;2023-04-25T09:03:25;9.65;;;8.68;;
34142;SDS011;20419;10.658;106.724;2023-04-25T09:05:52;10.23;;;9.23;;
34142;SDS011;20419;10.658;106.724;2023-04-25T09:08:19;9.85;;;8.95;;
34142;SDS011;20419;10.658;106.724;2023-04-25T09:10:45;9.30;;;8.40;;
34142;SDS011;20419;10.658;106.724;2023-04-25T09:13:13;10.88;;;9.77;;
34142;SDS011;20419;10.658;106.724;2023-04-25T09:15:56;10.43;;;9.43;;
34142;SDS011;20419;10.658;106.724;2023-04-25T09:18:23;9.55;;;8.65;;
34142;SDS011;20419;10.658;106.724;2023-04-25T09:20:51;10.57;;;9.48;;
34142;SDS011;20419;10.658;106.724;2023-04-25T09:23:19;10.20;;;9.25;;
34142;SDS011;20419;10.658;106.724;2023-04-25T09:25:50;9.95;;;8.98;;
34142;SDS011;20419;10.658;106.724;2023-04-25T09:28:22;9.93;;;9.03;;
34142;SDS011;20419;10.658;106.724;2023-04-25T09:30:53;9.73;;;8.80;;
34142;SDS011;20419;10.658;106.724;2023-04-25T09:33:23;9.85;;;8.90;;
34142;SDS011;20419;10.658;106.724;2023-04-25T09:35:53;9.10;;;8.30;;
34142;SDS011;20419;10.658;106.724;2023-04-25T09:38:21;9.50;;;8.60;;
34142;SDS011;20419;10.658;106.724;2023-04-25T09:40:48;10.68;;;9.60;;
34142;SDS011;20419;10.658;106.724;2023-04-25T09:43:21;10.45;;;9.45;;
34142;SDS011;20419;10.658;106.724;2023-04-25T09:45:48;10.73;;;9.73;;
34142;SDS011;20419;10.658;106.724;2023-04-25T09:53:32;11.65;;;10.57;;
34142;SDS011;20419;10.658;106.724;2023-04-25T09:55:59;11.15;;;10.15;;
34142;SDS011;20419;10.658;106.724;2023-04-25T09:58:27;11.68;;;10.57;;
34142;SDS011;20419;10.658;106.724;2023-04-25T10:00:57;10.90;;;9.80;;
34142;SDS011;20419;10.658;106.724;2023-04-25T10:03:26;11.23;;;10.15;;
34142;SDS011;20419;10.658;106.724;2023-04-25T10:05:52;11.90;;;10.75;;
34142;SDS011;20419;10.658;106.724;2023-04-25T10:08:19;10.85;;;9.85;;
34142;SDS011;20419;10.658;106.724;2023-04-25T10:10:46;10.65;;;9.65;;
34142;SDS011;20419;10.658;106.724;2023-04-25T10:13:16;11.10;;;10.00;;
34142;SDS011;20419;10.658;106.724;2023-04-25T10:15:43;10.50;;;9.50;;
34142;SDS011;20419;10.658;106.724;2023-04-25T10:18:10;10.80;;;9.80;;
34142;SDS011;20419;10.658;106.724;2023-04-25T10:20:37;12.00;;;10.90;;
34142;SDS011;20419;10.658;106.724;2023-04-25T10:23:12;11.18;;;10.18;;
34142;SDS011;20419;10.658;106.724;2023-04-25T10:25:41;11.00;;;9.93;;
34142;SDS011;20419;10.658;106.724;2023-04-25T10:28:08;10.45;;;9.45;;
34142;SDS011;20419;10.658;106.724;2023-04-25T10:30:34;11.30;;;10.20;;
34142;SDS011;20419;10.658;106.724;2023-04-25T10:33:01;12.00;;;10.80;;
34142;SDS011;20419;10.658;106.724;2023-04-25T10:35:28;11.02;;;9.98;;
34142;SDS011;20419;10.658;106.724;2023-04-25T10:40:32;10.85;;;9.85;;
34142;SDS011;20419;10.658;106.724;2023-04-25T10:45:59;10.70;;;9.70;;
34142;SDS011;20419;10.658;106.724;2023-04-25T10:48:26;10.68;;;9.68;;
34142;SDS011;20419;10.658;106.724;2023-04-25T10:51:09;11.15;;;10.05;;
34142;SDS011;20419;10.658;106.724;2023-04-25T10:53:36;11.00;;;10.00;;
34142;SDS011;20419;10.658;106.724;2023-04-25T10:56:09;11.27;;;10.20;;
34142;SDS011;20419;10.658;106.724;2023-04-25T10:58:41;10.50;;;9.50;;
34142;SDS011;20419;10.658;106.724;2023-04-25T11:01:08;10.95;;;9.95;;
34142;SDS011;20419;10.658;106.724;2023-04-25T11:03:41;10.20;;;9.20;;
34142;SDS011;20419;10.658;106.724;2023-04-25T11:06:16;10.60;;;9.60;;
34142;SDS011;20419;10.658;106.724;2023-04-25T11:08:48;10.57;;;9.48;;
34142;SDS011;20419;10.658;106.724;2023-04-25T11:11:16;10.52;;;9.52;;
34142;SDS011;20419;10.658;106.724;2023-04-25T11:13:43;10.25;;;9.25;;
34142;SDS011;20419;10.658;106.724;2023-04-25T11:16:11;10.82;;;9.73;;
34142;SDS011;20419;10.658;106.724;2023-04-25T11:18:37;10.25;;;9.27;;
34142;SDS011;20419;10.658;106.724;2023-04-25T11:21:04;11.95;;;9.35;;
34142;SDS011;20419;10.658;106.724;2023-04-25T11:23:31;10.43;;;9.43;;
34142;SDS011;20419;10.658;106.724;2023-04-25T11:25:58;10.77;;;9.77;;
34142;SDS011;20419;10.658;106.724;2023-04-25T11:28:26;11.20;;;10.20;;
34142;SDS011;20419;10.658;106.724;2023-04-25T11:30:53;10.57;;;9.57;;
34142;SDS011;20419;10.658;106.724;2023-04-25T11:33:23;10.35;;;9.32;;
34142;SDS011;20419;10.658;106.724;2023-04-25T11:35:53;9.73;;;8.82;;
34142;SDS011;20419;10.658;106.724;2023-04-25T11:38:20;10.02;;;8.98;;
34142;SDS011;20419;10.658;106.724;2023-04-25T11:40:53;10.88;;;9.70;;
34142;SDS011;20419;10.658;106.724;2023-04-25T11:43:22;10.38;;;9.38;;
34142;SDS011;20419;10.658;106.724;2023-04-25T11:45:49;9.88;;;8.95;;
34142;SDS011;20419;10.658;106.724;2023-04-25T11:48:20;10.27;;;9.27;;
34142;SDS011;20419;10.658;106.724;2023-04-25T11:50:46;10.52;;;9.52;;
34142;SDS011;20419;10.658;106.724;2023-04-25T11:53:13;10.57;;;9.52;;
34142;SDS011;20419;10.658;106.724;2023-04-25T11:55:40;10.48;;;9.48;;
34142;SDS011;20419;10.658;106.724;2023-04-25T11:58:07;11.27;;;10.18;;
34142;SDS011;20419;10.658;106.724;2023-04-25T12:00:34;10.43;;;9.43;;
34142;SDS011;20419;10.658;106.724;2023-04-25T12:03:01;10.00;;;9.02;;
34142;SDS011;20419;10.658;106.724;2023-04-25T12:05:29;9.98;;;8.98;;
34142;SDS011;20419;10.658;106.724;2023-04-25T12:08:09;10.60;;;9.60;;
34142;SDS011;20419;10.658;106.724;2023-04-25T12:10:37;9.35;;;8.45;;
34142;SDS011;20419;10.658;106.724;2023-04-25T12:13:21;9.52;;;8.63;;
34142;SDS011;20419;10.658;106.724;2023-04-25T12:15:49;9.20;;;8.35;;
34142;SDS011;20419;10.658;106.724;2023-04-25T12:18:18;10.07;;;9.07;;
34142;SDS011;20419;10.658;106.724;2023-04-25T12:20:46;10.82;;;9.45;;
34142;SDS011;20419;10.658;106.724;2023-04-25T12:23:13;10.63;;;9.52;;
34142;SDS011;20419;10.658;106.724;2023-04-25T12:25:40;10.52;;;9.43;;
34142;SDS011;20419;10.658;106.724;2023-04-25T12:28:14;10.10;;;9.20;;
34142;SDS011;20419;10.658;106.724;2023-04-25T12:33:40;10.15;;;9.15;;
34142;SDS011;20419;10.658;106.724;2023-04-25T12:36:09;10.02;;;9.15;;
34142;SDS011;20419;10.658;106.724;2023-04-25T12:38:41;10.70;;;9.60;;
34142;SDS011;20419;10.658;106.724;2023-04-25T12:41:08;9.55;;;8.63;;
34142;SDS011;20419;10.658;106.724;2023-04-25T12:43:35;10.25;;;9.25;;
34142;SDS011;20419;10.658;106.724;2023-04-25T12:46:02;10.90;;;9.90;;
34142;SDS011;20419;10.658;106.724;2023-04-25T12:48:29;10.15;;;9.20;;
34142;SDS011;20419;10.658;106.724;2023-04-25T12:50:56;10.02;;;9.02;;
34142;SDS011;20419;10.658;106.724;2023-04-25T12:53:23;9.80;;;8.88;;
34142;SDS011;20419;10.658;106.724;2023-04-25T12:55:50;10.60;;;9.60;;
34142;SDS011;20419;10.658;106.724;2023-04-25T12:58:18;10.45;;;9.45;;
34142;SDS011;20419;10.658;106.724;2023-04-25T13:00:45;9.93;;;9.02;;
34142;SDS011;20419;10.658;106.724;2023-04-25T13:03:12;10.45;;;9.45;;
34142;SDS011;20419;10.658;106.724;2023-04-25T13:05:38;10.30;;;9.30;;
34142;SDS011;20419;10.658;106.724;2023-04-25T13:08:05;9.50;;;8.55;;
34142;SDS011;20419;10.658;106.724;2023-04-25T13:10:32;10.18;;;9.23;;
34142;SDS011;20419;10.658;106.724;2023-04-25T13:13:03;10.13;;;9.13;;
34142;SDS011;20419;10.658;106.724;2023-04-25T13:15:30;9.68;;;8.68;;
34142;SDS011;20419;10.658;106.724;2023-04-25T13:17:57;10.00;;;8.77;;
34142;SDS011;20419;10.658;106.724;2023-04-25T13:20:24;9.73;;;8.68;;
34142;SDS011;20419;10.658;106.724;2023-04-25T13:22:50;9.73;;;8.82;;
34142;SDS011;20419;10.658;106.724;2023-04-25T13:25:17;9.85;;;8.95;;
34142;SDS011;20419;10.658;106.724;2023-04-25T13:27:44;10.32;;;9.38;;
34142;SDS011;20419;10.658;106.724;2023-04-25T13:30:11;10.95;;;9.95;;
34142;SDS011;20419;10.658;106.724;2023-04-25T13:32:38;10.25;;;9.25;;
34142;SDS011;20419;10.658;106.724;2023-04-25T13:35:06;10.85;;;9.85;;
34142;SDS011;20419;10.658;106.724;2023-04-25T13:40:01;9.85;;;8.85;;
34142;SDS011;20419;10.658;106.724;2023-04-25T13:42:39;9.95;;;9.05;;
34142;SDS011;20419;10.658;106.724;2023-04-25T13:45:35;10.75;;;9.65;;
34142;SDS011;20419;10.658;106.724;2023-04-25T13:48:02;10.10;;;9.13;;
34142;SDS011;20419;10.658;106.724;2023-04-25T13:50:29;9.85;;;8.95;;
34142;SDS011;20419;10.658;106.724;2023-04-25T13:53:08;10.10;;;9.07;;
34142;SDS011;20419;10.658;106.724;2023-04-25T13:55:35;10.63;;;9.63;;
34142;SDS011;20419;10.658;106.724;2023-04-25T13:58:02;8.85;;;8.05;;
34142;SDS011;20419;10.658;106.724;2023-04-25T14:00:33;9.73;;;8.82;;
34142;SDS011;20419;10.658;106.724;2023-04-25T14:03:00;9.47;;;8.57;;
34142;SDS011;20419;10.658;106.724;2023-04-25T14:05:30;9.35;;;8.50;;
34142;SDS011;20419;10.658;106.724;2023-04-25T14:07:56;10.13;;;9.20;;
34142;SDS011;20419;10.658;106.724;2023-04-25T14:10:26;9.10;;;8.20;;
34142;SDS011;20419;10.658;106.724;2023-04-25T14:12:52;10.13;;;9.13;;
34142;SDS011;20419;10.658;106.724;2023-04-25T14:15:19;8.68;;;7.78;;
34142;SDS011;20419;10.658;106.724;2023-04-25T14:17:46;10.10;;;9.10;;
34142;SDS011;20419;10.658;106.724;2023-04-25T14:20:13;9.88;;;8.95;;
34142;SDS011;20419;10.658;106.724;2023-04-25T14:22:40;10.75;;;9.68;;
34142;SDS011;20419;10.658;106.724;2023-04-25T14:25:09;10.25;;;9.25;;
34142;SDS011;20419;10.658;106.724;2023-04-25T14:27:35;9.77;;;8.77;;
34142;SDS011;20419;10.658;106.724;2023-04-25T14:30:02;9.65;;;8.65;;
34142;SDS011;20419;10.658;106.724;2023-04-25T14:32:30;9.57;;;8.68;;
34142;SDS011;20419;10.658;106.724;2023-04-25T14:34:57;10.18;;;9.07;;
34142;SDS011;20419;10.658;106.724;2023-04-25T14:37:24;9.05;;;8.15;;
34142;SDS011;20419;10.658;106.724;2023-04-25T14:39:50;9.40;;;8.50;;